createdAt,value
2019-01-29T00:01:49.619Z,17.20
2019-01-29T00:04:26.608Z,17.30
2019-01-29T00:07:03.642Z,17.40
2019-01-29T00:09:40.634Z,17.50
2019-01-29T00:12:18.206Z,17.60
2019-01-29T00:14:55.481Z,17.70
2019-01-29T00:17:32.596Z,17.70
2019-01-29T00:20:09.720Z,17.80
2019-01-29T00:22:50.102Z,17.90
2019-01-29T00:25:26.673Z,18.20
2019-01-29T00:28:03.470Z,18.20
2019-01-29T00:30:40.158Z,18.30
2019-01-29T00:33:17.088Z,18.40
2019-01-29T00:35:53.857Z,18.50
2019-01-29T00:38:31.129Z,18.60
2019-01-29T00:41:07.652Z,18.80
2019-01-29T00:43:44.780Z,19.00
2019-01-29T00:46:21.698Z,19.20
2019-01-29T00:48:58.713Z,19.40
2019-01-29T00:51:35.501Z,19.40
2019-01-29T00:54:12.684Z,19.60
2019-01-29T00:56:49.502Z,19.70
2019-01-29T00:59:26.688Z,19.80
2019-01-29T01:02:03.493Z,20.00
2019-01-29T01:04:40.649Z,20.20
2019-01-29T01:07:17.592Z,20.40
2019-01-29T01:09:57.219Z,20.60
2019-01-29T01:12:32.185Z,20.70
2019-01-29T01:15:10.961Z,20.80
2019-01-29T01:17:47.836Z,21.00
2019-01-29T01:20:25.326Z,21.10
2019-01-29T01:23:03.297Z,21.30
2019-01-29T01:25:40.560Z,21.30
2019-01-29T01:28:17.392Z,21.40
2019-01-29T01:30:56.202Z,21.60
2019-01-29T01:33:32.861Z,21.70
2019-01-29T01:36:09.569Z,21.80
2019-01-29T01:38:46.355Z,21.90
2019-01-29T01:41:23.084Z,22.00
2019-01-29T01:43:59.949Z,22.20
2019-01-29T01:46:36.789Z,22.20
2019-01-29T01:49:13.870Z,22.40
2019-01-29T01:51:50.959Z,22.40
2019-01-29T01:54:28.243Z,22.50
2019-01-29T01:57:05.155Z,22.60
2019-01-29T01:59:42.227Z,22.60
2019-01-29T02:02:19.802Z,22.70
2019-01-29T02:04:56.960Z,22.90
2019-01-29T02:07:33.650Z,23.10
2019-01-29T02:10:11.885Z,23.10
2019-01-29T02:12:49.034Z,23.30
2019-01-29T02:15:25.682Z,23.40
2019-01-29T02:18:02.147Z,23.50
2019-01-29T02:20:39.952Z,23.50
2019-01-29T02:23:18.195Z,23.70
2019-01-29T02:25:54.674Z,23.80
2019-01-29T02:28:32.665Z,24.00
2019-01-29T02:31:09.095Z,24.20
2019-01-29T02:33:46.077Z,24.20
2019-01-29T02:36:22.532Z,24.50
2019-01-29T02:38:59.254Z,24.50
2019-01-29T02:41:37.679Z,24.60
2019-01-29T02:44:14.037Z,24.60
2019-01-29T02:46:50.762Z,24.80
2019-01-29T02:49:27.433Z,25.00
2019-01-29T02:52:04.145Z,25.30
2019-01-29T02:54:40.486Z,25.40
2019-01-29T02:57:17.798Z,25.40
2019-01-29T02:59:54.669Z,25.50
2019-01-29T03:02:31.597Z,25.60
2019-01-29T03:05:08.868Z,25.90
2019-01-29T03:07:46.416Z,26.10
2019-01-29T03:10:24.873Z,26.30
2019-01-29T03:13:01.896Z,26.30
2019-01-29T03:15:38.951Z,26.50
2019-01-29T03:18:15.914Z,26.60
2019-01-29T03:20:52.170Z,26.40
2019-01-29T03:23:29.962Z,26.50
2019-01-29T03:26:06.963Z,26.80
2019-01-29T03:28:43.994Z,27.10
2019-01-29T03:31:20.862Z,27.00
2019-01-29T03:33:57.641Z,27.10
2019-01-29T03:36:34.678Z,26.90
2019-01-29T03:39:13.441Z,27.10
2019-01-29T03:41:49.798Z,27.00
2019-01-29T03:44:26.832Z,27.10
2019-01-29T03:47:04.009Z,27.20
2019-01-29T03:49:40.740Z,27.50
2019-01-29T03:52:17.223Z,27.50
2019-01-29T03:54:53.715Z,27.70
2019-01-29T03:57:30.675Z,27.40
2019-01-29T04:00:07.536Z,27.50
2019-01-29T04:03:01.167Z,27.50
2019-01-29T04:05:38.254Z,27.70
2019-01-29T04:08:15.349Z,27.10
2019-01-29T04:10:52.269Z,27.20
2019-01-29T04:13:28.925Z,27.70
2019-01-29T04:16:05.293Z,27.90
2019-01-29T04:18:42.393Z,27.90
2019-01-29T04:21:19.329Z,28.30
2019-01-29T04:23:56.319Z,27.90
2019-01-29T04:26:32.763Z,28.60
2019-01-29T04:29:09.610Z,28.60
2019-01-29T04:31:47.012Z,28.50
2019-01-29T04:34:23.970Z,28.40
2019-01-29T04:37:00.804Z,28.00
2019-01-29T04:39:37.515Z,27.90
2019-01-29T04:42:14.535Z,28.10
2019-01-29T04:44:51.439Z,28.10
2019-01-29T04:47:28.099Z,28.50
2019-01-29T04:50:04.998Z,28.60
2019-01-29T04:52:41.914Z,28.60
2019-01-29T04:55:19.355Z,28.50
2019-01-29T04:57:59.253Z,28.50
2019-01-29T05:00:36.149Z,28.60
2019-01-29T05:03:13.110Z,28.70
2019-01-29T05:05:50.314Z,28.90
2019-01-29T05:08:26.819Z,29.00
2019-01-29T05:11:03.689Z,28.70
2019-01-29T05:13:40.489Z,28.70
2019-01-29T05:16:17.756Z,28.20
2019-01-29T05:18:55.532Z,28.70
2019-01-29T05:21:32.611Z,28.90
2019-01-29T05:24:09.670Z,28.70
2019-01-29T05:26:46.982Z,28.80
2019-01-29T05:29:23.965Z,29.10
2019-01-29T05:32:00.262Z,29.20
2019-01-29T05:34:37.331Z,29.30
2019-01-29T05:37:14.333Z,28.30
2019-01-29T05:39:51.090Z,27.60
2019-01-29T05:42:27.848Z,27.40
2019-01-29T05:45:04.733Z,27.70
2019-01-29T05:47:41.909Z,28.50
2019-01-29T05:50:19.012Z,29.10
2019-01-29T05:52:56.037Z,29.40
2019-01-29T05:55:33.376Z,29.40
2019-01-29T05:58:10.068Z,29.40
2019-01-29T06:00:46.394Z,29.40
2019-01-29T06:03:23.431Z,29.40
2019-01-29T06:06:00.046Z,29.40
2019-01-29T06:08:37.317Z,29.30
2019-01-29T06:11:14.752Z,29.10
2019-01-29T06:13:52.748Z,29.70
2019-01-29T06:16:29.387Z,30.00
2019-01-29T06:19:06.075Z,29.90
2019-01-29T06:21:43.125Z,29.70
2019-01-29T06:24:25.526Z,29.70
2019-01-29T06:26:58.858Z,29.90
2019-01-29T06:29:35.493Z,30.10
2019-01-29T06:32:13.248Z,30.10
2019-01-29T06:34:50.156Z,30.00
2019-01-29T06:37:26.925Z,30.10
2019-01-29T06:40:03.941Z,30.30
2019-01-29T06:42:40.732Z,30.10
2019-01-29T06:45:19.469Z,30.10
2019-01-29T06:47:56.588Z,30.30
2019-01-29T06:50:33.154Z,30.20
2019-01-29T06:53:10.487Z,30.20
2019-01-29T06:55:47.430Z,30.30
2019-01-29T06:58:24.431Z,30.50
2019-01-29T07:01:02.235Z,30.60
2019-01-29T07:03:39.046Z,30.50
2019-01-29T07:06:16.008Z,30.60
2019-01-29T07:08:53.373Z,30.50
2019-01-29T07:11:30.672Z,30.50
2019-01-29T07:14:08.012Z,30.40
2019-01-29T07:16:55.429Z,30.60
2019-01-29T07:19:38.629Z,30.60
2019-01-29T07:22:15.249Z,30.60
2019-01-29T07:24:52.221Z,30.50
2019-01-29T07:27:29.372Z,30.50
2019-01-29T07:30:06.138Z,30.50
2019-01-29T07:32:43.118Z,30.50
2019-01-29T07:35:20.205Z,30.50
2019-01-29T07:37:56.842Z,30.40
2019-01-29T07:40:33.386Z,30.30
2019-01-29T07:43:10.352Z,30.40
2019-01-29T07:45:47.170Z,30.50
2019-01-29T07:48:23.856Z,30.70
2019-01-29T07:51:00.645Z,30.90
2019-01-29T07:53:37.712Z,30.70
2019-01-29T07:56:15.343Z,30.60
2019-01-29T07:58:52.711Z,30.60
2019-01-29T08:01:29.479Z,30.40
2019-01-29T08:04:07.073Z,30.50
2019-01-29T08:06:43.968Z,30.40
2019-01-29T08:09:21.067Z,30.40
2019-01-29T08:11:57.551Z,30.50
2019-01-29T08:14:34.100Z,30.40
2019-01-29T08:17:11.438Z,30.20
2019-01-29T08:19:47.352Z,30.30
2019-01-29T08:22:24.348Z,30.20
2019-01-29T08:25:02.228Z,30.30
2019-01-29T08:27:39.224Z,30.20
2019-01-29T08:30:16.166Z,30.20
2019-01-29T08:32:52.782Z,29.90
2019-01-29T08:35:29.305Z,29.50
2019-01-29T08:38:05.948Z,29.30
2019-01-29T08:40:42.355Z,29.20
2019-01-29T08:43:19.494Z,29.10
2019-01-29T08:45:56.254Z,29.20
2019-01-29T08:48:33.059Z,29.40
2019-01-29T08:51:13.029Z,29.60
2019-01-29T08:53:49.813Z,29.80
2019-01-29T08:56:27.841Z,29.90
2019-01-29T08:59:04.596Z,29.80
2019-01-29T09:01:41.387Z,29.90
2019-01-29T09:04:17.885Z,29.90
2019-01-29T09:06:54.899Z,29.80
2019-01-29T09:09:31.781Z,29.70
2019-01-29T09:12:08.678Z,29.70
2019-01-29T09:14:45.282Z,29.60
2019-01-29T09:17:22.297Z,29.60
2019-01-29T09:19:59.224Z,29.60
2019-01-29T09:22:35.891Z,29.60
2019-01-29T09:25:19.883Z,29.60
2019-01-29T09:27:52.229Z,29.50
2019-01-29T09:30:29.328Z,29.60
2019-01-29T09:33:07.014Z,29.50
2019-01-29T09:35:43.753Z,29.50
2019-01-29T09:38:20.649Z,29.40
2019-01-29T09:41:01.072Z,29.40
2019-01-29T09:43:37.780Z,29.40
2019-01-29T09:46:15.591Z,29.40
2019-01-29T09:48:51.569Z,29.30
2019-01-29T09:51:28.757Z,29.30
2019-01-29T09:54:05.117Z,29.30
2019-01-29T09:56:41.896Z,29.20
2019-01-29T09:59:19.308Z,29.20
2019-01-29T10:01:56.277Z,29.10
2019-01-29T10:04:33.214Z,29.10
2019-01-29T10:07:10.294Z,29.10
2019-01-29T10:09:47.053Z,29.00
2019-01-29T10:12:24.192Z,29.00
2019-01-29T10:15:01.067Z,29.00
2019-01-29T10:17:38.978Z,29.00
2019-01-29T10:20:15.764Z,28.90
2019-01-29T10:22:52.852Z,28.90
2019-01-29T10:25:37.124Z,28.80
2019-01-29T10:28:07.751Z,28.80
2019-01-29T10:30:44.122Z,28.70
2019-01-29T10:33:21.057Z,28.60
2019-01-29T10:35:57.791Z,28.50
2019-01-29T10:38:34.461Z,28.40
2019-01-29T10:41:11.556Z,28.30
2019-01-29T10:43:48.508Z,28.10
2019-01-29T10:46:25.320Z,28.00
2019-01-29T10:49:01.980Z,27.90
2019-01-29T10:51:38.412Z,27.70
2019-01-29T10:54:15.581Z,27.70
2019-01-29T10:56:52.233Z,27.50
2019-01-29T10:59:29.264Z,27.30
2019-01-29T11:02:05.980Z,27.10
2019-01-29T11:04:42.788Z,26.90
2019-01-29T11:07:19.508Z,26.70
2019-01-29T11:09:56.513Z,26.60
2019-01-29T11:12:33.247Z,26.70
2019-01-29T11:15:12.131Z,26.60
2019-01-29T11:17:48.739Z,26.50
2019-01-29T11:20:24.882Z,26.40
2019-01-29T11:23:02.198Z,26.30
2019-01-29T11:25:39.171Z,26.20
2019-01-29T11:28:15.786Z,26.10
2019-01-29T11:30:52.748Z,26.10
2019-01-29T11:33:29.939Z,26.00
2019-01-29T11:36:09.839Z,25.80
2019-01-29T11:38:46.698Z,25.70
2019-01-29T11:41:23.710Z,25.50
2019-01-29T11:44:01.010Z,25.50
2019-01-29T11:46:38.179Z,25.30
2019-01-29T11:49:15.463Z,25.40
2019-01-29T11:51:52.117Z,25.30
2019-01-29T11:54:29.199Z,25.20
2019-01-29T11:57:05.720Z,25.10
2019-01-29T11:59:42.547Z,25.00
2019-01-29T12:02:18.887Z,25.00
2019-01-29T12:04:55.883Z,25.00
2019-01-29T12:07:32.700Z,24.80
2019-01-29T12:10:10.393Z,24.60
2019-01-29T12:12:46.829Z,24.60
2019-01-29T12:15:25.503Z,24.60
2019-01-29T12:18:02.548Z,24.60
2019-01-29T12:20:40.346Z,24.60
2019-01-29T12:23:17.261Z,24.60
2019-01-29T12:25:54.090Z,24.50
2019-01-29T12:28:31.963Z,24.50
2019-01-29T12:31:09.194Z,24.30
2019-01-29T12:33:46.691Z,24.30
2019-01-29T12:36:26.371Z,24.20
2019-01-29T12:39:06.101Z,24.10
2019-01-29T12:41:44.144Z,24.00
2019-01-29T12:44:21.513Z,24.00
2019-01-29T12:46:58.802Z,23.90
2019-01-29T12:49:35.642Z,23.90
2019-01-29T12:52:31.285Z,23.80
2019-01-29T12:55:09.152Z,23.80
2019-01-29T12:57:46.836Z,23.70
2019-01-29T13:00:25.518Z,23.60
2019-01-29T13:03:02.796Z,23.60
2019-01-29T13:05:39.333Z,23.60
2019-01-29T13:08:16.768Z,23.60
2019-01-29T13:10:53.360Z,23.50
2019-01-29T13:13:31.768Z,23.40
2019-01-29T13:16:08.504Z,23.30
2019-01-29T13:18:45.502Z,23.30
2019-01-29T13:21:21.980Z,23.30
2019-01-29T13:23:58.870Z,23.30
2019-01-29T13:26:37.993Z,23.30
2019-01-29T13:29:14.754Z,23.20
2019-01-29T13:31:51.958Z,23.00
2019-01-29T13:34:28.954Z,23.00
2019-01-29T13:37:06.184Z,23.00
2019-01-29T13:39:43.390Z,22.90
2019-01-29T13:42:20.487Z,22.90
2019-01-29T13:44:57.369Z,22.90
2019-01-29T13:47:34.714Z,22.90
2019-01-29T13:50:14.546Z,22.90
2019-01-29T13:52:51.729Z,22.90
2019-01-29T13:55:29.221Z,22.80
2019-01-29T13:58:07.270Z,22.80
2019-01-29T14:00:44.431Z,22.80
2019-01-29T14:03:21.413Z,22.70
2019-01-29T14:05:59.004Z,22.60
2019-01-29T14:08:36.984Z,22.60
2019-01-29T14:11:13.821Z,22.60
2019-01-29T14:13:50.713Z,22.50
2019-01-29T14:16:27.164Z,22.40
2019-01-29T14:19:04.378Z,22.40
2019-01-29T14:21:41.049Z,22.50
2019-01-29T14:24:17.884Z,22.50
2019-01-29T14:26:55.340Z,22.30
2019-01-29T14:29:31.888Z,22.20
2019-01-29T14:32:08.588Z,22.20
2019-01-29T14:34:45.812Z,22.10
2019-01-29T14:37:21.970Z,22.10
2019-01-29T14:40:20.807Z,22.10
2019-01-29T14:42:57.466Z,22.10
2019-01-29T14:45:34.384Z,22.20
2019-01-29T14:48:12.011Z,22.10
2019-01-29T14:50:48.685Z,22.20
2019-01-29T14:53:25.815Z,22.20
2019-01-29T14:56:03.273Z,22.20
2019-01-29T14:58:43.360Z,22.00
2019-01-29T15:01:21.793Z,21.90
2019-01-29T15:03:58.872Z,21.90
2019-01-29T15:06:36.576Z,21.80
2019-01-29T15:09:22.403Z,21.80
2019-01-29T15:12:00.576Z,21.70
2019-01-29T15:14:37.205Z,21.60
2019-01-29T15:17:51.734Z,21.70
2019-01-29T15:20:29.124Z,21.60
2019-01-29T15:23:06.586Z,21.60
2019-01-29T15:25:43.204Z,21.60
2019-01-29T15:28:20.590Z,21.70
2019-01-29T15:30:57.266Z,21.70
2019-01-29T15:33:33.842Z,21.60
2019-01-29T15:36:10.910Z,21.50
2019-01-29T15:38:48.144Z,21.30
2019-01-29T15:41:24.768Z,21.30
2019-01-29T15:44:01.677Z,21.20
2019-01-29T15:46:38.956Z,21.10
2019-01-29T15:49:16.412Z,21.20
2019-01-29T15:51:52.781Z,21.10
2019-01-29T15:54:29.369Z,21.10
2019-01-29T15:57:14.076Z,21.20
2019-01-29T15:59:45.108Z,21.20
2019-01-29T16:02:22.138Z,21.30
2019-01-29T16:05:00.371Z,21.30
2019-01-29T16:07:38.735Z,21.20
2019-01-29T16:10:17.661Z,21.30
2019-01-29T16:12:55.309Z,21.20
2019-01-29T16:15:32.392Z,21.00
2019-01-29T16:18:08.873Z,20.90
2019-01-29T16:20:46.429Z,20.90
2019-01-29T16:23:23.011Z,20.90
2019-01-29T16:25:59.806Z,20.90
2019-01-29T16:28:35.969Z,21.00
2019-01-29T16:31:12.875Z,20.90
2019-01-29T16:33:49.468Z,20.80
2019-01-29T16:36:26.358Z,20.70
2019-01-29T16:39:02.857Z,20.70
2019-01-29T16:41:41.193Z,20.70
2019-01-29T16:44:17.861Z,20.60
2019-01-29T16:46:54.862Z,20.70
2019-01-29T16:49:31.582Z,20.70
2019-01-29T16:52:08.617Z,20.70
2019-01-29T16:54:44.996Z,20.70
2019-01-29T16:57:21.817Z,20.60
2019-01-29T16:59:58.582Z,20.60
2019-01-29T17:02:35.523Z,20.70
2019-01-29T17:05:16.218Z,20.90
2019-01-29T17:07:53.938Z,20.80
2019-01-29T17:10:30.326Z,20.60
2019-01-29T17:13:07.914Z,20.50
2019-01-29T17:15:44.656Z,20.40
2019-01-29T17:18:21.687Z,20.40
2019-01-29T17:20:58.324Z,20.40
2019-01-29T17:23:35.509Z,20.40
2019-01-29T17:26:12.101Z,20.30
2019-01-29T17:28:48.909Z,20.30
2019-01-29T17:31:25.532Z,20.30
2019-01-29T17:34:02.211Z,20.40
2019-01-29T17:36:39.360Z,20.40
2019-01-29T17:39:16.047Z,20.30
2019-01-29T17:41:52.440Z,20.50
2019-01-29T17:44:29.377Z,20.50
2019-01-29T17:47:06.065Z,20.40
2019-01-29T17:49:43.127Z,20.30
2019-01-29T17:52:19.713Z,20.20
2019-01-29T17:54:56.552Z,20.10
2019-01-29T17:57:33.119Z,20.00
2019-01-29T18:00:11.243Z,20.10
2019-01-29T18:02:47.814Z,20.30
2019-01-29T18:05:24.936Z,20.30
2019-01-29T18:08:01.668Z,20.20
2019-01-29T18:10:38.555Z,20.20
2019-01-29T18:13:15.567Z,20.20
2019-01-29T18:15:52.933Z,20.10
2019-01-29T18:18:29.450Z,20.00
2019-01-29T18:21:06.431Z,20.00
2019-01-29T18:23:43.051Z,20.10
2019-01-29T18:26:20.110Z,20.10
2019-01-29T18:28:56.776Z,20.10
2019-01-29T18:31:33.563Z,20.00
2019-01-29T18:34:10.006Z,19.90
2019-01-29T18:36:46.656Z,19.80
2019-01-29T18:39:23.416Z,19.70
2019-01-29T18:42:01.450Z,20.00
2019-01-29T18:44:37.795Z,20.00
2019-01-29T18:47:15.742Z,20.10
2019-01-29T18:49:52.411Z,20.10
2019-01-29T18:52:29.506Z,20.00
2019-01-29T18:55:06.085Z,20.00
2019-01-29T18:57:42.962Z,20.10
2019-01-29T19:00:22.238Z,19.90
2019-01-29T19:02:59.055Z,19.80
2019-01-29T19:05:35.637Z,19.90
2019-01-29T19:08:12.588Z,19.90
2019-01-29T19:10:48.969Z,19.80
2019-01-29T19:13:26.044Z,19.80
2019-01-29T19:16:02.482Z,19.70
2019-01-29T19:18:39.707Z,19.70
2019-01-29T19:21:17.975Z,19.60
2019-01-29T19:23:54.807Z,19.60
2019-01-29T19:26:31.501Z,19.60
2019-01-29T19:29:08.055Z,19.60
2019-01-29T19:31:44.800Z,19.50
2019-01-29T19:34:21.686Z,19.60
2019-01-29T19:36:58.273Z,19.50
2019-01-29T19:39:35.005Z,19.60
2019-01-29T19:42:11.767Z,19.60
2019-01-29T19:44:48.996Z,19.50
2019-01-29T19:47:25.644Z,19.50
2019-01-29T19:50:03.042Z,19.40
2019-01-29T19:52:39.885Z,19.50
2019-01-29T19:55:17.090Z,19.50
2019-01-29T19:57:53.799Z,19.50
2019-01-29T20:00:39.125Z,19.50
2019-01-29T20:03:15.844Z,19.40
2019-01-29T20:05:52.787Z,19.40
2019-01-29T20:08:29.994Z,19.40
2019-01-29T20:11:06.943Z,19.30
2019-01-29T20:13:43.845Z,19.30
2019-01-29T20:16:20.751Z,19.30
2019-01-29T20:18:57.884Z,19.30
2019-01-29T20:21:35.515Z,19.30
2019-01-29T20:24:12.031Z,19.40
2019-01-29T20:26:49.043Z,19.30
2019-01-29T20:29:25.916Z,19.30
2019-01-29T20:32:02.952Z,19.30
2019-01-29T20:34:39.747Z,19.30
2019-01-29T20:37:16.636Z,19.20
2019-01-29T20:39:53.337Z,19.30
2019-01-29T20:42:29.981Z,19.20
2019-01-29T20:45:07.271Z,19.20
2019-01-29T20:47:45.712Z,19.30
2019-01-29T20:50:25.778Z,19.30
2019-01-29T20:53:02.845Z,19.40
2019-01-29T20:55:39.321Z,19.40
2019-01-29T20:58:15.903Z,19.30
2019-01-29T21:00:52.833Z,19.40
2019-01-29T21:03:30.050Z,19.30
2019-01-29T21:06:06.551Z,19.10
2019-01-29T21:08:43.446Z,19.30
2019-01-29T21:11:20.130Z,19.40
2019-01-29T21:13:56.873Z,19.40
2019-01-29T21:16:34.474Z,19.40
2019-01-29T21:19:12.359Z,19.20
2019-01-29T21:21:49.398Z,19.10
2019-01-29T21:24:26.061Z,19.10
2019-01-29T21:27:02.851Z,19.10
2019-01-29T21:29:39.235Z,19.00
2019-01-29T21:32:16.336Z,19.00
2019-01-29T21:34:52.809Z,19.00
2019-01-29T21:37:29.469Z,19.00
2019-01-29T21:40:06.325Z,18.90
2019-01-29T21:42:43.153Z,19.00
2019-01-29T21:45:19.546Z,19.10
2019-01-29T21:47:56.262Z,19.10
2019-01-29T21:50:34.904Z,19.20
2019-01-29T21:53:11.798Z,19.00
2019-01-29T21:55:48.915Z,18.90
2019-01-29T21:58:26.436Z,19.00
2019-01-29T22:01:03.218Z,19.00
2019-01-29T22:03:39.786Z,19.00
2019-01-29T22:06:16.735Z,19.00
2019-01-29T22:08:53.147Z,18.90
2019-01-29T22:11:29.839Z,18.90
2019-01-29T22:14:06.839Z,18.90
2019-01-29T22:16:44.073Z,19.10
2019-01-29T22:19:20.992Z,19.20
2019-01-29T22:21:58.166Z,19.10
2019-01-29T22:24:34.860Z,19.00
2019-01-29T22:27:12.022Z,19.00
2019-01-29T22:29:48.676Z,18.90
2019-01-29T22:32:25.801Z,18.80
2019-01-29T22:35:02.466Z,18.80
2019-01-29T22:37:39.462Z,18.80
2019-01-29T22:40:18.888Z,18.90
2019-01-29T22:42:55.794Z,19.00
2019-01-29T22:45:32.686Z,19.10
2019-01-29T22:48:10.518Z,19.00
2019-01-29T22:50:48.211Z,18.90
2019-01-29T22:53:25.384Z,19.00
2019-01-29T22:56:02.443Z,19.00
2019-01-29T22:58:39.376Z,18.90
2019-01-29T23:01:50.754Z,18.80
2019-01-29T23:04:33.001Z,18.70
2019-01-29T23:07:39.579Z,18.60
2019-01-29T23:10:21.084Z,18.60
2019-01-29T23:12:58.204Z,18.70
2019-01-29T23:15:35.014Z,18.80
2019-01-29T23:18:12.084Z,18.80
2019-01-29T23:20:49.572Z,18.70
2019-01-29T23:23:26.608Z,18.60
2019-01-29T23:26:03.792Z,18.60
2019-01-29T23:28:40.691Z,18.60
2019-01-29T23:31:17.124Z,18.40
2019-01-29T23:33:54.109Z,18.40
2019-01-29T23:36:31.007Z,18.50
2019-01-29T23:39:09.078Z,18.50
2019-01-29T23:41:45.987Z,18.50
2019-01-29T23:44:22.753Z,18.70
2019-01-29T23:46:59.304Z,18.80
2019-01-29T23:49:36.610Z,18.70
2019-01-29T23:52:13.091Z,18.60
2019-01-29T23:54:50.270Z,18.60
2019-01-29T23:57:27.198Z,18.50
